createdAt,value
2022-09-22T00:00:32.477Z,2.77
2022-09-22T00:01:37.009Z,2.60
2022-09-22T00:02:38.762Z,2.23
2022-09-22T00:03:43.846Z,2.30
2022-09-22T00:04:46.171Z,2.23
2022-09-22T00:05:47.928Z,2.70
2022-09-22T00:06:52.012Z,2.30
2022-09-22T00:07:54.959Z,2.40
2022-09-22T00:09:00.715Z,2.90
2022-09-22T00:10:02.669Z,2.43
2022-09-22T00:11:16.941Z,2.43
2022-09-22T00:12:18.640Z,2.40
2022-09-22T00:13:20.326Z,2.63
2022-09-22T00:14:27.945Z,2.43
2022-09-22T00:15:30.352Z,2.40
2022-09-22T00:16:42.025Z,2.63
2022-09-22T00:17:44.599Z,2.70
2022-09-22T00:18:46.414Z,2.23
2022-09-22T00:19:48.204Z,2.40
2022-09-22T00:20:49.895Z,2.60
2022-09-22T00:21:52.455Z,2.37
2022-09-22T00:22:54.109Z,2.80
2022-09-22T00:23:55.764Z,2.50
2022-09-22T00:24:57.425Z,2.40
2022-09-22T00:25:59.721Z,2.43
2022-09-22T00:27:01.799Z,2.50
2022-09-22T00:28:04.603Z,2.60
2022-09-22T00:29:10.830Z,2.43
2022-09-22T00:30:13.494Z,2.37
2022-09-22T00:31:18.268Z,2.50
2022-09-22T00:32:19.994Z,2.70
2022-09-22T00:33:21.675Z,2.67
2022-09-22T00:34:26.050Z,2.83
2022-09-22T00:35:27.740Z,2.80
2022-09-22T00:36:29.602Z,2.57
2022-09-22T00:37:31.476Z,3.00
2022-09-22T00:38:33.567Z,2.47
2022-09-22T00:39:35.360Z,2.80
2022-09-22T00:40:38.008Z,2.20
2022-09-22T00:41:42.809Z,2.50
2022-09-22T00:42:45.644Z,2.50
2022-09-22T00:43:50.409Z,2.50
2022-09-22T00:44:52.273Z,2.80
2022-09-22T00:46:11.027Z,2.73
2022-09-22T00:47:37.237Z,2.53
2022-09-22T00:48:45.140Z,2.30
2022-09-22T00:49:55.263Z,2.30
2022-09-22T00:50:58.900Z,2.40
2022-09-22T00:52:01.402Z,2.67
2022-09-22T00:53:07.867Z,2.50
2022-09-22T00:54:14.169Z,2.77
2022-09-22T00:55:53.211Z,2.80
2022-09-22T00:57:19.021Z,2.77
2022-09-22T00:58:27.626Z,2.00
2022-09-22T00:59:29.901Z,2.60
2022-09-22T01:00:31.705Z,2.20
2022-09-22T01:01:36.930Z,2.70
2022-09-22T01:02:39.409Z,2.43
2022-09-22T01:03:42.735Z,2.50
2022-09-22T01:04:45.731Z,2.40
2022-09-22T01:05:50.791Z,2.43
2022-09-22T01:06:54.731Z,2.77
2022-09-22T01:07:56.471Z,2.70
2022-09-22T01:08:59.595Z,2.70
2022-09-22T01:10:01.482Z,2.70
2022-09-22T01:11:03.662Z,2.40
2022-09-22T01:12:05.749Z,2.40
2022-09-22T01:13:10.522Z,2.40
2022-09-22T01:14:50.837Z,2.40
2022-09-22T01:15:55.585Z,2.53
2022-09-22T01:17:27.744Z,2.33
2022-09-22T01:19:08.169Z,2.30
2022-09-22T01:20:11.218Z,2.10
2022-09-22T01:21:40.459Z,2.53
2022-09-22T01:23:19.383Z,2.30
2022-09-22T01:25:17.868Z,2.30
2022-09-22T01:26:57.029Z,2.07
2022-09-22T01:28:04.150Z,2.30
2022-09-22T01:29:50.529Z,2.07
2022-09-22T01:31:09.949Z,2.20
2022-09-22T01:32:33.981Z,2.10
2022-09-22T01:33:49.401Z,2.50
2022-09-22T01:35:32.262Z,2.10
2022-09-22T01:36:40.507Z,2.50
2022-09-22T01:37:47.036Z,2.20
2022-09-22T01:39:12.769Z,2.30
2022-09-22T01:40:35.560Z,2.43
2022-09-22T01:42:21.853Z,2.40
2022-09-22T01:43:35.875Z,2.40
2022-09-22T01:44:45.715Z,2.27
2022-09-22T01:45:48.759Z,2.10
2022-09-22T01:46:55.269Z,2.40
2022-09-22T01:48:20.109Z,2.60
2022-09-22T01:49:24.717Z,2.50
2022-09-22T01:50:35.899Z,2.20
2022-09-22T01:51:51.866Z,2.30
2022-09-22T01:52:55.295Z,2.03
2022-09-22T01:54:12.468Z,2.43
2022-09-22T01:55:23.018Z,2.20
2022-09-22T01:56:27.960Z,2.23
2022-09-22T01:57:43.419Z,2.60
2022-09-22T01:58:56.881Z,2.40
2022-09-22T02:00:04.920Z,2.53
2022-09-22T02:01:16.684Z,2.30
2022-09-22T02:02:28.450Z,2.27
2022-09-22T02:03:39.191Z,2.30
2022-09-22T02:04:47.854Z,2.10
2022-09-22T02:06:04.173Z,2.20
2022-09-22T02:07:10.175Z,2.40
2022-09-22T02:08:24.484Z,2.30
2022-09-22T02:09:29.732Z,2.17
2022-09-22T02:10:36.682Z,2.10
2022-09-22T02:11:38.829Z,2.73
2022-09-22T02:12:41.067Z,2.60
2022-09-22T02:13:44.461Z,2.50
2022-09-22T02:14:47.065Z,2.50
2022-09-22T02:16:00.856Z,2.63
2022-09-22T02:17:02.772Z,2.30
2022-09-22T02:18:10.059Z,2.07
2022-09-22T02:19:20.152Z,2.60
2022-09-22T02:20:22.077Z,2.40
2022-09-22T02:21:27.827Z,2.20
2022-09-22T02:22:30.205Z,2.67
2022-09-22T02:23:32.347Z,2.50
2022-09-22T02:24:35.466Z,2.50
2022-09-22T02:25:38.410Z,2.60
2022-09-22T02:26:40.133Z,2.40
2022-09-22T02:27:43.072Z,2.90
2022-09-22T02:28:45.326Z,2.87
2022-09-22T02:29:57.901Z,2.27
2022-09-22T02:31:19.457Z,2.77
2022-09-22T02:32:23.303Z,2.53
2022-09-22T02:33:27.339Z,2.80
2022-09-22T02:34:29.300Z,2.73
2022-09-22T02:35:35.615Z,2.40
2022-09-22T02:37:00.365Z,2.70
2022-09-22T02:38:10.046Z,2.60
2022-09-22T02:39:13.757Z,2.50
2022-09-22T02:40:18.434Z,2.40
2022-09-22T02:41:50.921Z,2.57
2022-09-22T02:43:03.544Z,2.97
2022-09-22T02:44:12.646Z,2.37
2022-09-22T02:45:34.130Z,2.20
2022-09-22T02:46:45.924Z,2.47
2022-09-22T02:48:02.993Z,2.30
2022-09-22T02:49:09.617Z,2.53
2022-09-22T02:50:14.648Z,2.40
2022-09-22T02:51:18.440Z,3.07
2022-09-22T02:52:23.306Z,2.67
2022-09-22T02:53:25.149Z,2.40
2022-09-22T02:54:26.861Z,2.70
2022-09-22T02:55:28.931Z,2.43
2022-09-22T02:56:30.671Z,2.43
2022-09-22T02:57:32.479Z,2.87
2022-09-22T02:58:34.241Z,2.73
2022-09-22T02:59:35.925Z,2.97
2022-09-22T03:00:37.681Z,2.47
2022-09-22T03:01:39.459Z,2.60
2022-09-22T03:02:41.203Z,2.67
2022-09-22T03:03:42.914Z,2.37
2022-09-22T03:04:44.723Z,2.43
2022-09-22T03:05:46.488Z,2.57
2022-09-22T03:06:48.281Z,2.97
2022-09-22T03:07:49.949Z,2.47
2022-09-22T03:08:51.673Z,3.27
2022-09-22T03:09:53.501Z,2.20
2022-09-22T03:10:55.239Z,2.23
2022-09-22T03:11:56.898Z,2.17
2022-09-22T03:13:15.386Z,2.67
2022-09-22T03:14:17.980Z,2.33
2022-09-22T03:15:23.775Z,2.40
2022-09-22T03:16:28.161Z,2.33
2022-09-22T03:17:32.118Z,2.37
2022-09-22T03:18:33.867Z,2.60
2022-09-22T03:19:35.606Z,2.77
2022-09-22T03:20:37.356Z,2.70
2022-09-22T03:21:39.208Z,2.70
2022-09-22T03:22:41.478Z,2.60
2022-09-22T03:23:43.122Z,2.67
2022-09-22T03:24:44.775Z,3.20
2022-09-22T03:25:46.725Z,2.63
2022-09-22T03:26:48.454Z,2.40
2022-09-22T03:27:50.139Z,2.60
2022-09-22T03:28:51.861Z,2.80
2022-09-22T03:29:55.087Z,2.63
2022-09-22T03:30:56.833Z,2.50
2022-09-22T03:31:58.619Z,2.50
2022-09-22T03:33:00.361Z,2.80
2022-09-22T03:34:02.077Z,2.70
2022-09-22T03:35:04.898Z,2.60
2022-09-22T03:36:06.849Z,2.57
2022-09-22T03:37:08.531Z,2.60
2022-09-22T03:38:11.187Z,2.40
2022-09-22T03:39:12.887Z,3.00
2022-09-22T03:40:14.773Z,2.27
2022-09-22T03:41:17.454Z,2.60
2022-09-22T03:42:19.596Z,2.37
2022-09-22T03:43:21.319Z,2.80
2022-09-22T03:44:23.030Z,2.73
2022-09-22T03:45:25.002Z,2.80
2022-09-22T03:46:26.868Z,2.60
2022-09-22T03:47:28.587Z,2.67
2022-09-22T03:48:31.186Z,2.87
2022-09-22T03:49:33.160Z,2.83
2022-09-22T03:50:35.766Z,2.70
2022-09-22T03:51:37.505Z,2.50
2022-09-22T03:52:41.628Z,2.50
2022-09-22T03:53:43.306Z,2.47
2022-09-22T03:54:44.966Z,2.67
2022-09-22T03:55:46.975Z,2.47
2022-09-22T03:56:49.130Z,2.73
2022-09-22T03:57:50.911Z,2.97
2022-09-22T03:58:52.600Z,2.60
2022-09-22T03:59:54.369Z,2.70
2022-09-22T04:00:56.125Z,2.67
2022-09-22T04:01:58.505Z,2.70
2022-09-22T04:03:00.246Z,2.90
2022-09-22T04:04:02.164Z,2.53
2022-09-22T04:05:03.974Z,2.57
2022-09-22T04:06:06.553Z,2.77
2022-09-22T04:07:08.519Z,2.50
2022-09-22T04:08:10.211Z,2.50
2022-09-22T04:09:11.990Z,2.73
2022-09-22T04:10:13.766Z,2.93
2022-09-22T04:11:15.606Z,2.70
2022-09-22T04:12:17.284Z,3.00
2022-09-22T04:13:19.014Z,2.60
2022-09-22T04:14:20.747Z,2.67
2022-09-22T04:15:22.420Z,3.30
2022-09-22T04:16:24.339Z,2.67
2022-09-22T04:17:26.173Z,2.80
2022-09-22T04:18:28.481Z,2.93
2022-09-22T04:19:30.188Z,3.00
2022-09-22T04:20:31.897Z,3.30
2022-09-22T04:21:33.617Z,3.10
2022-09-22T04:22:36.305Z,3.03
2022-09-22T04:23:38.172Z,2.90
2022-09-22T04:24:39.884Z,3.00
2022-09-22T04:25:41.801Z,2.67
2022-09-22T04:27:01.883Z,3.00
2022-09-22T04:28:06.747Z,3.00
2022-09-22T04:29:08.518Z,2.70
2022-09-22T04:30:11.050Z,3.00
2022-09-22T04:31:13.090Z,2.87
2022-09-22T04:32:15.243Z,3.30
2022-09-22T04:33:17.363Z,2.70
2022-09-22T04:34:19.097Z,2.63
2022-09-22T04:35:20.848Z,2.60
2022-09-22T04:36:22.625Z,2.70
2022-09-22T04:37:24.379Z,2.90
2022-09-22T04:38:26.467Z,2.33
2022-09-22T04:39:28.848Z,2.90
2022-09-22T04:40:30.775Z,2.37
2022-09-22T04:41:32.591Z,2.63
2022-09-22T04:42:34.288Z,2.93
2022-09-22T04:43:36.043Z,2.93
2022-09-22T04:44:37.714Z,2.97
2022-09-22T04:45:39.914Z,2.80
2022-09-22T04:46:45.956Z,2.73
2022-09-22T04:47:49.868Z,2.60
2022-09-22T04:48:51.604Z,3.50
2022-09-22T04:49:53.721Z,3.50
2022-09-22T04:50:56.251Z,2.97
2022-09-22T04:51:58.066Z,3.00
2022-09-22T04:52:59.942Z,2.87
2022-09-22T04:54:02.195Z,3.17
2022-09-22T04:55:04.906Z,3.07
2022-09-22T04:56:06.680Z,3.10
2022-09-22T04:57:09.210Z,3.33
2022-09-22T04:58:10.945Z,3.40
2022-09-22T04:59:12.758Z,3.43
2022-09-22T05:00:14.625Z,3.00
2022-09-22T05:01:16.470Z,3.30
2022-09-22T05:02:19.104Z,3.57
2022-09-22T05:03:22.336Z,3.23
2022-09-22T05:04:24.726Z,3.20
2022-09-22T05:05:27.449Z,3.07
2022-09-22T05:06:29.259Z,2.90
2022-09-22T05:07:30.948Z,3.40
2022-09-22T05:08:32.756Z,2.90
2022-09-22T05:09:34.453Z,3.20
2022-09-22T05:10:37.218Z,3.43
2022-09-22T05:11:39.545Z,3.57
2022-09-22T05:12:42.583Z,3.53
2022-09-22T05:13:44.347Z,3.60
2022-09-22T05:14:46.375Z,3.37
2022-09-22T05:15:48.102Z,3.57
2022-09-22T05:16:49.811Z,3.80
2022-09-22T05:17:53.323Z,3.80
2022-09-22T05:18:55.319Z,4.10
2022-09-22T05:19:56.986Z,3.37
2022-09-22T05:20:59.588Z,3.47
2022-09-22T05:22:01.661Z,3.87
2022-09-22T05:23:03.355Z,3.50
2022-09-22T05:24:05.316Z,3.63
2022-09-22T05:25:10.711Z,3.67
2022-09-22T05:26:12.697Z,3.57
2022-09-22T05:27:14.734Z,3.80
2022-09-22T05:28:16.438Z,3.93
2022-09-22T05:29:18.334Z,3.57
2022-09-22T05:30:24.756Z,3.70
2022-09-22T05:31:26.487Z,4.07
2022-09-22T05:32:28.248Z,3.70
2022-09-22T05:33:30.357Z,4.30
2022-09-22T05:34:32.235Z,3.70
2022-09-22T05:35:36.811Z,3.97
2022-09-22T05:36:39.015Z,4.13
2022-09-22T05:37:45.780Z,4.40
2022-09-22T05:38:47.461Z,4.30
2022-09-22T05:39:49.170Z,3.97
2022-09-22T05:40:50.912Z,3.40
2022-09-22T05:41:52.603Z,3.60
2022-09-22T05:42:55.146Z,3.20
2022-09-22T05:43:56.821Z,3.40
2022-09-22T05:44:58.531Z,3.67
2022-09-22T05:46:00.497Z,4.00
2022-09-22T05:47:02.284Z,3.63
2022-09-22T05:48:04.048Z,3.37
2022-09-22T05:49:05.741Z,4.20
2022-09-22T05:50:09.121Z,4.23
2022-09-22T05:51:11.043Z,3.93
2022-09-22T05:52:12.704Z,3.43
2022-09-22T05:53:15.763Z,3.50
2022-09-22T05:54:22.530Z,3.63
2022-09-22T05:55:24.961Z,3.43
2022-09-22T05:56:26.691Z,3.30
2022-09-22T05:57:28.468Z,3.63
2022-09-22T05:58:30.181Z,3.43
2022-09-22T05:59:31.924Z,3.80
2022-09-22T06:00:33.626Z,3.43
2022-09-22T06:01:35.408Z,4.10
2022-09-22T06:02:37.165Z,4.40
2022-09-22T06:03:38.904Z,4.17
2022-09-22T06:04:40.567Z,4.03
2022-09-22T06:05:45.037Z,3.87
2022-09-22T06:06:47.786Z,4.43
2022-09-22T06:07:59.101Z,4.57
2022-09-22T06:09:01.449Z,4.27
2022-09-22T06:10:03.522Z,5.13
2022-09-22T06:11:05.405Z,4.37
2022-09-22T06:12:08.677Z,4.17
2022-09-22T06:13:11.158Z,4.40
2022-09-22T06:14:12.824Z,4.70
2022-09-22T06:15:14.620Z,4.50
2022-09-22T06:16:16.843Z,4.33
2022-09-22T06:17:18.546Z,4.93
2022-09-22T06:18:24.650Z,4.20
2022-09-22T06:19:28.787Z,4.13
2022-09-22T06:20:30.492Z,4.33
2022-09-22T06:21:32.155Z,4.70
2022-09-22T06:22:37.068Z,5.30
2022-09-22T06:23:42.858Z,5.37
2022-09-22T06:24:45.090Z,4.80
2022-09-22T06:25:46.898Z,4.83
2022-09-22T06:26:48.560Z,5.80
2022-09-22T06:28:11.883Z,4.47
2022-09-22T06:29:13.652Z,4.30
2022-09-22T06:30:15.409Z,4.40
2022-09-22T06:31:17.371Z,4.10
2022-09-22T06:32:19.480Z,4.80
2022-09-22T06:33:23.903Z,4.40
2022-09-22T06:34:27.228Z,4.90
2022-09-22T06:35:37.610Z,4.40
2022-09-22T06:36:42.446Z,4.10
2022-09-22T06:37:44.131Z,4.90
2022-09-22T06:38:45.834Z,4.87
2022-09-22T06:39:47.597Z,6.03
2022-09-22T06:40:49.570Z,6.00
2022-09-22T06:41:51.446Z,6.10
2022-09-22T06:43:07.433Z,5.63
2022-09-22T06:44:10.992Z,5.40
2022-09-22T06:45:13.834Z,6.60
2022-09-22T06:46:18.584Z,6.70
2022-09-22T06:47:20.427Z,5.90
2022-09-22T06:48:24.777Z,5.80
2022-09-22T06:49:26.467Z,5.80
2022-09-22T06:50:32.191Z,6.73
2022-09-22T06:51:35.873Z,6.00
2022-09-22T06:52:38.503Z,6.10
2022-09-22T06:53:40.235Z,6.00
2022-09-22T06:54:42.248Z,6.20
2022-09-22T06:55:44.633Z,5.90
2022-09-22T06:56:46.309Z,5.67
2022-09-22T06:57:48.067Z,6.13
2022-09-22T06:59:08.697Z,5.83
2022-09-22T07:00:12.416Z,5.93
2022-09-22T07:01:14.401Z,6.07
2022-09-22T07:02:16.281Z,6.30
2022-09-22T07:03:24.310Z,6.23
2022-09-22T07:04:26.066Z,6.17
2022-09-22T07:05:27.803Z,6.57
2022-09-22T07:06:29.687Z,6.53
2022-09-22T07:07:32.241Z,6.10
2022-09-22T07:08:36.027Z,6.10
2022-09-22T07:09:37.786Z,6.30
2022-09-22T07:10:39.541Z,6.10
2022-09-22T07:11:41.360Z,5.77
2022-09-22T07:12:43.028Z,6.03
2022-09-22T07:13:45.680Z,6.00
2022-09-22T07:14:49.428Z,5.70
2022-09-22T07:15:51.464Z,5.63
2022-09-22T07:16:55.353Z,6.10
2022-09-22T07:17:57.138Z,5.93
2022-09-22T07:18:59.053Z,6.30
2022-09-22T07:20:01.042Z,6.80
2022-09-22T07:21:07.770Z,6.43
2022-09-22T07:22:10.091Z,6.57
2022-09-22T07:23:20.894Z,6.13
2022-09-22T07:24:22.638Z,6.33
2022-09-22T07:25:24.374Z,6.80
2022-09-22T07:26:34.003Z,6.07
2022-09-22T07:27:35.799Z,6.87
2022-09-22T07:28:38.110Z,5.50
2022-09-22T07:29:40.078Z,5.80
2022-09-22T07:30:41.948Z,6.20
2022-09-22T07:31:44.401Z,6.00
2022-09-22T07:32:46.154Z,5.63
2022-09-22T07:33:47.919Z,5.80
2022-09-22T07:34:49.667Z,5.73
2022-09-22T07:36:02.026Z,5.73
2022-09-22T07:37:03.764Z,6.10
2022-09-22T07:38:05.420Z,5.80
2022-09-22T07:39:10.934Z,6.47
2022-09-22T07:40:12.820Z,5.40
2022-09-22T07:41:19.924Z,5.87
2022-09-22T07:42:21.829Z,5.00
2022-09-22T07:43:24.287Z,5.00
2022-09-22T07:44:44.855Z,4.87
2022-09-22T07:45:57.299Z,4.63
2022-09-22T07:46:59.856Z,4.67
2022-09-22T07:48:20.245Z,4.73
2022-09-22T07:49:22.306Z,4.10
2022-09-22T07:50:24.045Z,4.43
2022-09-22T07:51:26.601Z,5.13
2022-09-22T07:52:30.177Z,4.82
2022-09-22T07:53:32.785Z,4.57
2022-09-22T07:54:36.858Z,4.50
2022-09-22T07:55:38.664Z,4.23
2022-09-22T07:56:42.990Z,5.20
2022-09-22T07:57:48.855Z,5.93
2022-09-22T07:58:53.422Z,5.60
2022-09-22T07:59:55.132Z,5.35
2022-09-22T08:00:56.921Z,4.90
2022-09-22T08:02:01.049Z,5.80
2022-09-22T08:03:04.118Z,5.68
2022-09-22T08:04:05.910Z,5.15
2022-09-22T08:05:09.316Z,5.80
2022-09-22T08:06:11.329Z,4.82
2022-09-22T08:07:15.069Z,5.00
2022-09-22T08:08:16.730Z,5.03
2022-09-22T08:09:19.464Z,4.82
2022-09-22T08:10:21.403Z,5.07
2022-09-22T08:11:26.451Z,4.85
2022-09-22T08:12:28.395Z,5.65
2022-09-22T08:13:30.130Z,5.10
2022-09-22T08:14:31.956Z,5.22
2022-09-22T08:15:33.814Z,4.32
2022-09-22T08:16:39.925Z,4.90
2022-09-22T08:17:41.803Z,4.38
2022-09-22T08:18:43.606Z,4.50
2022-09-22T08:19:45.764Z,4.50
2022-09-22T08:20:47.428Z,4.45
2022-09-22T08:21:52.900Z,4.78
2022-09-22T08:22:56.091Z,5.05
2022-09-22T08:23:58.076Z,4.63
2022-09-22T08:24:59.734Z,4.68
2022-09-22T08:26:06.670Z,4.60
2022-09-22T08:27:08.330Z,4.88
2022-09-22T08:28:10.287Z,5.25
2022-09-22T08:29:12.291Z,5.35
2022-09-22T08:30:14.056Z,4.93
2022-09-22T08:31:17.680Z,5.95
2022-09-22T08:32:19.613Z,5.30
2022-09-22T08:33:21.307Z,5.87
2022-09-22T08:34:23.170Z,5.70
2022-09-22T08:35:24.871Z,5.47
2022-09-22T08:36:30.954Z,4.95
2022-09-22T08:37:32.615Z,4.82
2022-09-22T08:38:34.637Z,5.22
2022-09-22T08:39:36.784Z,5.35
2022-09-22T08:40:39.048Z,5.18
2022-09-22T08:42:05.839Z,5.20
2022-09-22T08:43:10.801Z,4.72
2022-09-22T08:44:24.011Z,4.43
2022-09-22T08:45:38.418Z,4.50
2022-09-22T08:46:44.981Z,4.85
2022-09-22T08:48:13.573Z,4.00
2022-09-22T08:50:03.756Z,3.88
2022-09-22T08:51:30.834Z,4.10
2022-09-22T08:52:50.455Z,4.13
2022-09-22T08:53:53.260Z,4.15
2022-09-22T08:54:59.609Z,4.97
2022-09-22T08:56:30.422Z,4.43
2022-09-22T08:57:44.331Z,4.10
2022-09-22T08:59:09.097Z,4.53
2022-09-22T09:00:15.510Z,4.55
2022-09-22T09:01:17.506Z,4.60
2022-09-22T09:02:38.786Z,3.90
2022-09-22T09:03:57.778Z,4.40
2022-09-22T09:05:21.209Z,3.67
2022-09-22T09:06:39.276Z,3.83
2022-09-22T09:08:06.592Z,3.83
2022-09-22T09:09:25.443Z,2.20
2022-09-22T09:10:49.118Z,2.03
2022-09-22T09:12:05.986Z,2.15
2022-09-22T09:13:13.253Z,2.40
2022-09-22T09:14:30.729Z,2.10
2022-09-22T09:15:48.597Z,2.30
2022-09-22T09:16:58.290Z,2.13
2022-09-22T09:18:06.027Z,2.08
2022-09-22T09:19:39.389Z,1.92
2022-09-22T09:20:47.295Z,1.65
2022-09-22T09:21:55.059Z,1.65
2022-09-22T09:22:58.244Z,1.90
2022-09-22T09:25:40.329Z,2.15
2022-09-22T09:26:43.582Z,1.95
2022-09-22T09:27:50.127Z,1.98
2022-09-22T09:29:03.523Z,1.92
2022-09-22T09:30:18.068Z,1.88
2022-09-22T09:31:35.011Z,1.83
2022-09-22T09:32:50.640Z,1.90
2022-09-22T09:33:56.651Z,1.70
2022-09-22T09:34:58.441Z,1.90
2022-09-22T09:36:01.412Z,1.83
2022-09-22T09:37:13.824Z,1.90
2022-09-22T09:38:17.384Z,2.00
2022-09-22T09:39:30.656Z,1.98
2022-09-22T09:40:32.822Z,2.13
2022-09-22T09:41:36.406Z,2.00
2022-09-22T09:42:38.110Z,2.05
2022-09-22T09:43:42.745Z,2.10
2022-09-22T09:44:45.595Z,2.17
2022-09-22T09:46:11.820Z,1.88
2022-09-22T09:47:19.620Z,1.90
2022-09-22T09:48:30.588Z,1.98
2022-09-22T09:49:32.656Z,1.70
2022-09-22T09:50:37.819Z,1.80
2022-09-22T09:51:43.242Z,1.92
2022-09-22T09:52:45.519Z,2.00
2022-09-22T09:53:47.917Z,2.05
2022-09-22T09:54:49.833Z,1.80
2022-09-22T09:55:51.509Z,1.73
2022-09-22T09:57:12.553Z,1.80
2022-09-22T09:58:34.242Z,1.60
2022-09-22T09:59:56.974Z,1.85
2022-09-22T10:01:00.535Z,2.03
2022-09-22T10:02:02.476Z,1.67
2022-09-22T10:03:12.422Z,1.58
2022-09-22T10:04:32.677Z,1.25
2022-09-22T10:05:37.443Z,1.35
2022-09-22T10:06:39.138Z,1.40
2022-09-22T10:08:10.810Z,1.48
2022-09-22T10:09:27.775Z,1.40
2022-09-22T10:10:29.510Z,1.42
2022-09-22T10:11:32.703Z,1.20
2022-09-22T10:12:34.476Z,1.52
2022-09-22T10:13:40.596Z,1.50
2022-09-22T10:14:51.620Z,1.52
2022-09-22T10:16:10.154Z,1.50
2022-09-22T10:17:26.800Z,1.02
2022-09-22T10:18:37.610Z,1.10
2022-09-22T10:19:39.372Z,1.00
2022-09-22T10:20:41.052Z,1.00
2022-09-22T10:21:42.803Z,1.08
2022-09-22T10:22:45.480Z,1.05
2022-09-22T10:23:49.309Z,1.00
2022-09-22T10:25:27.379Z,1.17
2022-09-22T10:26:31.808Z,1.00
2022-09-22T10:27:33.480Z,1.27
2022-09-22T10:28:36.335Z,1.13
2022-09-22T10:29:42.225Z,1.10
2022-09-22T10:30:46.379Z,0.88
2022-09-22T10:32:15.026Z,1.00
2022-09-22T10:33:19.777Z,1.00
2022-09-22T10:34:31.459Z,1.10
2022-09-22T10:35:35.263Z,1.02
2022-09-22T10:36:45.080Z,0.82
2022-09-22T10:37:47.641Z,1.05
2022-09-22T10:38:49.895Z,1.10
2022-09-22T10:39:52.882Z,1.13
2022-09-22T10:41:07.980Z,1.13
2022-09-22T10:42:44.000Z,1.20
2022-09-22T10:44:35.053Z,1.10
2022-09-22T10:46:52.925Z,1.10
2022-09-22T10:48:03.526Z,1.00
2022-09-22T10:49:34.463Z,0.88
2022-09-22T10:50:47.760Z,1.17
2022-09-22T10:52:15.473Z,1.20
2022-09-22T10:53:45.790Z,1.00
2022-09-22T10:55:16.873Z,1.10
2022-09-22T10:56:35.271Z,1.00
2022-09-22T10:57:52.246Z,0.85
2022-09-22T10:59:20.328Z,0.98
2022-09-22T11:00:23.650Z,1.20
2022-09-22T11:01:42.112Z,0.90
2022-09-22T11:03:14.746Z,0.90
2022-09-22T11:04:43.034Z,1.17
2022-09-22T11:06:33.047Z,1.23
2022-09-22T11:08:02.367Z,1.42
2022-09-22T11:11:18.054Z,0.93
2022-09-22T11:12:54.224Z,1.10
2022-09-22T11:14:30.032Z,0.77
2022-09-22T11:15:40.694Z,1.00
2022-09-22T11:16:50.338Z,1.00
2022-09-22T11:18:16.232Z,1.00
2022-09-22T11:19:42.145Z,1.10
2022-09-22T11:21:03.203Z,1.20
2022-09-22T11:22:05.354Z,1.20
2022-09-22T11:23:45.331Z,1.00
2022-09-22T11:25:16.062Z,1.33
2022-09-22T11:26:46.196Z,1.00
2022-09-22T11:28:01.745Z,1.20
2022-09-22T11:29:20.458Z,1.17
2022-09-22T11:30:23.193Z,0.98
2022-09-22T11:31:48.486Z,1.20
2022-09-22T11:33:20.845Z,1.00
2022-09-22T11:34:46.011Z,1.52
2022-09-22T11:36:15.424Z,1.05
2022-09-22T11:37:38.511Z,1.00
2022-09-22T11:39:02.096Z,1.08
2022-09-22T11:40:17.143Z,1.33
2022-09-22T11:41:18.896Z,1.10
2022-09-22T11:42:36.093Z,1.05
2022-09-22T11:44:03.789Z,0.77
2022-09-22T11:45:47.371Z,1.08
2022-09-22T11:47:20.379Z,0.90
2022-09-22T11:48:45.922Z,1.00
2022-09-22T11:49:56.496Z,1.00
2022-09-22T11:51:25.937Z,1.00
2022-09-22T11:52:43.110Z,0.95
2022-09-22T11:54:03.628Z,0.80
2022-09-22T11:55:18.528Z,1.05
2022-09-22T11:56:37.607Z,0.88
2022-09-22T11:57:44.681Z,0.90
2022-09-22T11:58:47.628Z,0.90
2022-09-22T12:00:18.931Z,0.98
2022-09-22T12:01:25.837Z,0.88
2022-09-22T12:02:44.423Z,0.98
2022-09-22T12:04:01.304Z,1.23
2022-09-22T12:05:12.757Z,1.00
2022-09-22T12:06:18.547Z,0.90
2022-09-22T12:07:33.674Z,0.90
2022-09-22T12:08:43.460Z,1.00
2022-09-22T12:10:06.527Z,1.17
2022-09-22T12:11:13.533Z,0.90
2022-09-22T12:12:19.853Z,1.00
2022-09-22T12:13:27.528Z,0.85
2022-09-22T12:14:29.987Z,1.10
2022-09-22T12:15:43.526Z,0.93
2022-09-22T12:17:00.115Z,0.90
2022-09-22T12:18:14.568Z,0.98
2022-09-22T12:19:19.071Z,1.00
2022-09-22T12:20:35.529Z,0.80
2022-09-22T12:21:58.427Z,0.90
2022-09-22T12:23:21.908Z,1.17
2022-09-22T12:24:24.732Z,0.90
2022-09-22T12:25:49.102Z,0.80
2022-09-22T12:26:51.805Z,1.20
2022-09-22T12:27:56.532Z,1.00
2022-09-22T12:29:01.136Z,0.98
2022-09-22T12:30:11.359Z,0.70
2022-09-22T12:31:18.964Z,0.90
2022-09-22T12:32:29.500Z,1.00
2022-09-22T12:33:36.783Z,1.00
2022-09-22T12:34:43.500Z,0.88
2022-09-22T12:35:53.255Z,0.93
2022-09-22T12:36:59.467Z,0.93
2022-09-22T12:38:02.208Z,1.13
2022-09-22T12:39:25.563Z,0.80
2022-09-22T12:40:30.713Z,1.00
2022-09-22T12:41:32.636Z,0.70
2022-09-22T12:42:38.354Z,0.98
2022-09-22T12:43:40.220Z,0.88
2022-09-22T12:44:51.249Z,0.80
2022-09-22T12:45:54.963Z,1.10
2022-09-22T12:47:06.805Z,0.93
2022-09-22T12:48:16.887Z,1.10
2022-09-22T12:49:22.854Z,0.98
2022-09-22T12:50:24.498Z,0.80
2022-09-22T12:51:26.158Z,1.10
2022-09-22T12:52:39.855Z,1.20
2022-09-22T12:53:43.788Z,1.13
2022-09-22T12:54:46.782Z,1.13
2022-09-22T12:55:49.883Z,0.73
2022-09-22T12:57:01.451Z,0.82
2022-09-22T12:58:03.267Z,0.82
2022-09-22T12:59:37.011Z,0.90
2022-09-22T13:00:41.096Z,0.90
2022-09-22T13:01:43.314Z,0.95
2022-09-22T13:02:46.060Z,1.05
2022-09-22T13:03:51.888Z,0.73
2022-09-22T13:04:56.657Z,0.80
2022-09-22T13:06:00.621Z,0.80
2022-09-22T13:07:02.459Z,1.00
2022-09-22T13:08:04.571Z,0.82
2022-09-22T13:09:06.228Z,1.00
2022-09-22T13:10:23.315Z,1.08
2022-09-22T13:12:01.980Z,0.90
2022-09-22T13:13:04.154Z,1.00
2022-09-22T13:14:44.360Z,0.70
2022-09-22T13:15:46.031Z,0.80
2022-09-22T13:16:47.703Z,1.00
2022-09-22T13:17:51.062Z,0.90
2022-09-22T13:18:53.107Z,0.95
2022-09-22T13:19:58.248Z,0.70
2022-09-22T13:21:02.312Z,1.17
2022-09-22T13:22:17.892Z,0.90
2022-09-22T13:23:19.740Z,0.80
2022-09-22T13:24:26.498Z,0.90
2022-09-22T13:25:31.252Z,0.80
2022-09-22T13:26:40.994Z,0.88
2022-09-22T13:27:42.731Z,0.90
2022-09-22T13:28:44.472Z,1.00
2022-09-22T13:29:58.935Z,0.80
2022-09-22T13:31:15.290Z,0.90
2022-09-22T13:32:26.887Z,0.70
2022-09-22T13:33:33.392Z,0.70
2022-09-22T13:34:37.150Z,0.80
2022-09-22T13:35:41.669Z,0.80
2022-09-22T13:36:44.550Z,0.80
2022-09-22T13:37:46.288Z,0.80
2022-09-22T13:38:55.691Z,0.80
2022-09-22T13:39:58.023Z,0.88
2022-09-22T13:40:59.896Z,0.90
2022-09-22T13:42:10.429Z,0.80
2022-09-22T13:43:12.320Z,1.20
2022-09-22T13:44:15.323Z,0.90
2022-09-22T13:45:23.902Z,0.90
2022-09-22T13:46:35.598Z,1.00
2022-09-22T13:47:39.496Z,0.93
2022-09-22T13:48:41.416Z,1.02
2022-09-22T13:49:49.486Z,1.00
2022-09-22T13:50:56.226Z,0.90
2022-09-22T13:52:12.589Z,0.80
2022-09-22T13:53:18.896Z,0.73
2022-09-22T13:54:24.763Z,1.05
2022-09-22T13:55:34.716Z,1.00
2022-09-22T13:56:37.939Z,1.00
2022-09-22T13:57:39.881Z,0.90
2022-09-22T13:58:43.241Z,1.00
2022-09-22T13:59:45.278Z,1.00
2022-09-22T14:01:12.532Z,0.90
2022-09-22T14:02:21.142Z,0.77
2022-09-22T14:03:23.192Z,0.90
2022-09-22T14:04:27.419Z,0.80
2022-09-22T14:05:32.838Z,0.95
2022-09-22T14:06:34.759Z,0.85
2022-09-22T14:07:45.369Z,0.93
2022-09-22T14:08:53.293Z,2.85
2022-09-22T14:09:57.785Z,1.40
2022-09-22T14:11:00.176Z,0.90
2022-09-22T14:12:02.863Z,1.05
2022-09-22T14:13:04.582Z,0.80
2022-09-22T14:14:07.918Z,0.82
2022-09-22T14:15:37.702Z,1.75
2022-09-22T14:16:47.624Z,1.10
2022-09-22T14:17:50.344Z,1.02
2022-09-22T14:19:23.255Z,0.80
2022-09-22T14:20:26.765Z,0.77
2022-09-22T14:21:28.596Z,1.08
2022-09-22T14:22:40.256Z,0.90
2022-09-22T14:23:51.981Z,0.95
2022-09-22T14:24:59.196Z,0.90
2022-09-22T14:26:15.427Z,1.00
2022-09-22T14:27:35.495Z,1.00
2022-09-22T14:28:41.165Z,1.17
2022-09-22T14:29:48.229Z,1.00
2022-09-22T14:30:50.862Z,0.77
2022-09-22T14:32:00.359Z,0.80
2022-09-22T14:33:04.194Z,0.90
2022-09-22T14:34:08.952Z,1.10
2022-09-22T14:35:24.673Z,0.85
2022-09-22T14:36:26.439Z,1.00
2022-09-22T14:37:33.197Z,0.90
2022-09-22T14:38:42.998Z,0.90
2022-09-22T14:39:50.765Z,1.15
2022-09-22T14:40:55.826Z,1.10
2022-09-22T14:41:59.094Z,1.10
2022-09-22T14:43:11.878Z,0.90
2022-09-22T14:44:35.597Z,0.80
2022-09-22T14:45:39.559Z,0.68
2022-09-22T14:46:43.932Z,1.00
2022-09-22T14:47:45.765Z,0.93
2022-09-22T14:48:47.488Z,0.90
2022-09-22T14:49:49.301Z,1.02
2022-09-22T14:51:00.169Z,0.93
2022-09-22T14:52:03.056Z,0.82
2022-09-22T14:53:29.951Z,1.00
2022-09-22T14:54:34.795Z,0.75
2022-09-22T14:55:39.406Z,0.90
2022-09-22T14:56:44.172Z,0.88
2022-09-22T14:57:50.128Z,0.90
2022-09-22T14:58:54.900Z,1.05
2022-09-22T15:00:18.471Z,0.90
2022-09-22T15:01:50.752Z,1.88
2022-09-22T15:02:54.361Z,0.95
2022-09-22T15:04:01.272Z,1.00
2022-09-22T15:05:04.648Z,0.98
2022-09-22T15:06:12.099Z,1.17